sensor_id;sensor_type;location;lat;lon;timestamp;pressure;altitude;pressure_sealevel;temperature;humidity
77299;BME280;66361;52.034;20.656;2023-09-18T00:03:47;100037.28;;;15.23;100.00
77299;BME280;66361;52.034;20.656;2023-09-18T00:07:50;100026.44;;;15.15;100.00
77299;BME280;66361;52.034;20.656;2023-09-18T00:11:54;100028.31;;;15.03;100.00
77299;BME280;66361;52.034;20.656;2023-09-18T00:15:57;100017.13;;;14.88;100.00
77299;BME280;66361;52.034;20.656;2023-09-18T00:20:03;100021.38;;;14.80;100.00
77299;BME280;66361;52.034;20.656;2023-09-18T00:24:09;100023.13;;;14.70;100.00
77299;BME280;66361;52.034;20.656;2023-09-18T00:28:13;100033.50;;;14.62;100.00
77299;BME280;66361;52.034;20.656;2023-09-18T00:32:18;100029.94;;;14.51;100.00
77299;BME280;66361;52.034;20.656;2023-09-18T00:36:23;100032.94;;;14.47;100.00
77299;BME280;66361;52.034;20.656;2023-09-18T00:40:26;100029.34;;;14.48;100.00
77299;BME280;66361;52.034;20.656;2023-09-18T00:44:29;100022.88;;;14.62;100.00
77299;BME280;66361;52.034;20.656;2023-09-18T00:48:32;100018.38;;;14.73;100.00
77299;BME280;66361;52.034;20.656;2023-09-18T00:52:38;100019.94;;;14.87;100.00
77299;BME280;66361;52.034;20.656;2023-09-18T00:56:41;100023.50;;;14.97;100.00
77299;BME280;66361;52.034;20.656;2023-09-18T01:00:45;100016.59;;;15.06;100.00
77299;BME280;66361;52.034;20.656;2023-09-18T01:04:48;100016.38;;;15.18;100.00
77299;BME280;66361;52.034;20.656;2023-09-18T01:08:53;100011.16;;;15.28;100.00
77299;BME280;66361;52.034;20.656;2023-09-18T01:13:03;100008.19;;;15.42;100.00
77299;BME280;66361;52.034;20.656;2023-09-18T01:17:10;100007.66;;;15.48;100.00
77299;BME280;66361;52.034;20.656;2023-09-18T01:21:15;100010.78;;;15.53;100.00
77299;BME280;66361;52.034;20.656;2023-09-18T01:25:20;100014.28;;;15.54;100.00
77299;BME280;66361;52.034;20.656;2023-09-18T01:29:23;100014.03;;;15.57;100.00
77299;BME280;66361;52.034;20.656;2023-09-18T01:33:26;100014.59;;;15.60;100.00
77299;BME280;66361;52.034;20.656;2023-09-18T01:37:31;100015.31;;;15.62;100.00
77299;BME280;66361;52.034;20.656;2023-09-18T01:41:36;100012.25;;;15.67;100.00
77299;BME280;66361;52.034;20.656;2023-09-18T01:45:40;99998.69;;;15.70;100.00
77299;BME280;66361;52.034;20.656;2023-09-18T01:49:43;100000.25;;;15.72;100.00
77299;BME280;66361;52.034;20.656;2023-09-18T01:53:48;99995.63;;;15.74;100.00
77299;BME280;66361;52.034;20.656;2023-09-18T01:57:56;100001.53;;;15.78;100.00
77299;BME280;66361;52.034;20.656;2023-09-18T02:02:00;99996.53;;;15.84;100.00
77299;BME280;66361;52.034;20.656;2023-09-18T02:06:05;100004.25;;;15.87;100.00
77299;BME280;66361;52.034;20.656;2023-09-18T02:10:09;99998.53;;;15.92;100.00
77299;BME280;66361;52.034;20.656;2023-09-18T02:14:15;99999.09;;;15.95;100.00
77299;BME280;66361;52.034;20.656;2023-09-18T02:18:18;99988.88;;;16.00;100.00
77299;BME280;66361;52.034;20.656;2023-09-18T02:22:21;99990.31;;;16.05;100.00
77299;BME280;66361;52.034;20.656;2023-09-18T02:26:25;99984.84;;;16.06;100.00
77299;BME280;66361;52.034;20.656;2023-09-18T02:30:29;99986.78;;;16.04;100.00
77299;BME280;66361;52.034;20.656;2023-09-18T02:34:32;99989.34;;;16.06;100.00
77299;BME280;66361;52.034;20.656;2023-09-18T02:38:35;99985.94;;;16.04;100.00
77299;BME280;66361;52.034;20.656;2023-09-18T02:42:38;99986.78;;;16.04;100.00
77299;BME280;66361;52.034;20.656;2023-09-18T02:46:43;99982.47;;;16.03;100.00
77299;BME280;66361;52.034;20.656;2023-09-18T02:50:46;99986.94;;;16.03;100.00
77299;BME280;66361;52.034;20.656;2023-09-18T02:54:49;99979.94;;;16.02;100.00
77299;BME280;66361;52.034;20.656;2023-09-18T02:58:53;99974.19;;;16.06;100.00
77299;BME280;66361;52.034;20.656;2023-09-18T03:02:57;99971.38;;;16.08;100.00
77299;BME280;66361;52.034;20.656;2023-09-18T03:07:00;99981.19;;;16.07;100.00
77299;BME280;66361;52.034;20.656;2023-09-18T03:11:03;99978.53;;;16.07;100.00
77299;BME280;66361;52.034;20.656;2023-09-18T03:15:07;99980.50;;;16.05;100.00
77299;BME280;66361;52.034;20.656;2023-09-18T03:19:12;99976.03;;;16.06;100.00
77299;BME280;66361;52.034;20.656;2023-09-18T03:23:15;99969.44;;;16.10;100.00
77299;BME280;66361;52.034;20.656;2023-09-18T03:27:18;99974.50;;;16.13;100.00
77299;BME280;66361;52.034;20.656;2023-09-18T03:31:21;99972.53;;;16.15;100.00
77299;BME280;66361;52.034;20.656;2023-09-18T03:35:28;99971.16;;;16.20;100.00
77299;BME280;66361;52.034;20.656;2023-09-18T03:39:31;99964.47;;;16.26;100.00
77299;BME280;66361;52.034;20.656;2023-09-18T03:43:35;99975.09;;;16.26;100.00
77299;BME280;66361;52.034;20.656;2023-09-18T03:47:38;99972.00;;;16.30;100.00
77299;BME280;66361;52.034;20.656;2023-09-18T03:51:43;99966.56;;;16.32;100.00
77299;BME280;66361;52.034;20.656;2023-09-18T03:55:48;99971.16;;;16.30;100.00
77299;BME280;66361;52.034;20.656;2023-09-18T03:59:51;99962.47;;;16.28;100.00
77299;BME280;66361;52.034;20.656;2023-09-18T04:03:54;99962.59;;;16.26;100.00
77299;BME280;66361;52.034;20.656;2023-09-18T04:07:59;99967.69;;;16.29;100.00
77299;BME280;66361;52.034;20.656;2023-09-18T04:12:03;99962.94;;;16.33;100.00
77299;BME280;66361;52.034;20.656;2023-09-18T04:16:07;99958.84;;;16.38;100.00
77299;BME280;66361;52.034;20.656;2023-09-18T04:20:11;99953.69;;;16.46;100.00
77299;BME280;66361;52.034;20.656;2023-09-18T04:24:16;99957.91;;;16.49;100.00
77299;BME280;66361;52.034;20.656;2023-09-18T04:28:21;99948.13;;;16.59;100.00
77299;BME280;66361;52.034;20.656;2023-09-18T04:32:24;99945.47;;;16.69;100.00
77299;BME280;66361;52.034;20.656;2023-09-18T04:36:27;99941.81;;;16.79;100.00
77299;BME280;66361;52.034;20.656;2023-09-18T04:40:32;99943.22;;;16.93;100.00
77299;BME280;66361;52.034;20.656;2023-09-18T04:44:34;99948.94;;;16.98;100.00
77299;BME280;66361;52.034;20.656;2023-09-18T04:48:39;99944.34;;;17.00;100.00
77299;BME280;66361;52.034;20.656;2023-09-18T04:52:43;99937.31;;;16.99;100.00
77299;BME280;66361;52.034;20.656;2023-09-18T04:56:48;99930.84;;;17.02;100.00
77299;BME280;66361;52.034;20.656;2023-09-18T05:00:53;99932.78;;;17.09;100.00
77299;BME280;66361;52.034;20.656;2023-09-18T05:04:57;99931.66;;;17.21;100.00
77299;BME280;66361;52.034;20.656;2023-09-18T05:09:00;99922.94;;;17.29;100.00
77299;BME280;66361;52.034;20.656;2023-09-18T05:13:06;99924.88;;;17.36;100.00
77299;BME280;66361;52.034;20.656;2023-09-18T05:17:10;99917.84;;;17.45;100.00
77299;BME280;66361;52.034;20.656;2023-09-18T05:21:13;99912.34;;;17.47;100.00
77299;BME280;66361;52.034;20.656;2023-09-18T05:25:17;99913.91;;;17.49;100.00
77299;BME280;66361;52.034;20.656;2023-09-18T05:29:21;99909.00;;;17.44;100.00
77299;BME280;66361;52.034;20.656;2023-09-18T05:33:24;99906.31;;;17.44;100.00
77299;BME280;66361;52.034;20.656;2023-09-18T05:37:28;99904.50;;;17.45;100.00
77299;BME280;66361;52.034;20.656;2023-09-18T05:41:30;99904.75;;;17.52;100.00
77299;BME280;66361;52.034;20.656;2023-09-18T05:45:35;99906.19;;;17.83;100.00
77299;BME280;66361;52.034;20.656;2023-09-18T05:49:38;99911.16;;;20.63;95.18
77299;BME280;66361;52.034;20.656;2023-09-18T05:53:41;99910.22;;;23.28;77.44
77299;BME280;66361;52.034;20.656;2023-09-18T05:57:45;99908.72;;;25.06;68.36
77299;BME280;66361;52.034;20.656;2023-09-18T06:01:49;99905.00;;;26.58;62.71
77299;BME280;66361;52.034;20.656;2023-09-18T06:05:52;99912.22;;;28.09;56.48
77299;BME280;66361;52.034;20.656;2023-09-18T06:09:56;99915.47;;;29.00;53.78
77299;BME280;66361;52.034;20.656;2023-09-18T06:13:58;99918.97;;;29.56;50.72
77299;BME280;66361;52.034;20.656;2023-09-18T06:18:03;99908.34;;;29.73;49.63
77299;BME280;66361;52.034;20.656;2023-09-18T06:22:09;99917.19;;;30.05;48.54
77299;BME280;66361;52.034;20.656;2023-09-18T06:26:12;99916.63;;;31.57;44.88
77299;BME280;66361;52.034;20.656;2023-09-18T06:30:15;99908.31;;;31.63;43.68
77299;BME280;66361;52.034;20.656;2023-09-18T06:34:20;99912.81;;;32.04;43.28
77299;BME280;66361;52.034;20.656;2023-09-18T06:38:22;99912.56;;;31.59;46.08
77299;BME280;66361;52.034;20.656;2023-09-18T06:42:25;99908.50;;;32.08;45.70
77299;BME280;66361;52.034;20.656;2023-09-18T06:46:28;99912.09;;;33.10;42.69
77299;BME280;66361;52.034;20.656;2023-09-18T06:50:33;99898.00;;;33.90;40.96
77299;BME280;66361;52.034;20.656;2023-09-18T06:54:38;99896.25;;;34.49;38.31
77299;BME280;66361;52.034;20.656;2023-09-18T06:58:43;99892.59;;;33.95;38.53
77299;BME280;66361;52.034;20.656;2023-09-18T07:02:48;99891.03;;;33.83;39.33
77299;BME280;66361;52.034;20.656;2023-09-18T07:06:53;99907.44;;;35.28;36.70
77299;BME280;66361;52.034;20.656;2023-09-18T07:10:58;99902.25;;;35.00;37.59
77299;BME280;66361;52.034;20.656;2023-09-18T07:15:01;99901.13;;;34.96;36.08
77299;BME280;66361;52.034;20.656;2023-09-18T07:19:06;99907.88;;;35.94;35.13
77299;BME280;66361;52.034;20.656;2023-09-18T07:23:14;99905.06;;;34.78;37.20
77299;BME280;66361;52.034;20.656;2023-09-18T07:27:18;99898.63;;;36.15;33.26
77299;BME280;66361;52.034;20.656;2023-09-18T07:31:21;99910.75;;;35.72;34.94
77299;BME280;66361;52.034;20.656;2023-09-18T07:35:24;99903.25;;;36.10;32.33
77299;BME280;66361;52.034;20.656;2023-09-18T07:39:29;99906.66;;;36.27;34.18
77299;BME280;66361;52.034;20.656;2023-09-18T07:43:32;99909.41;;;36.37;32.13
77299;BME280;66361;52.034;20.656;2023-09-18T07:47:34;99909.81;;;36.71;32.23
77299;BME280;66361;52.034;20.656;2023-09-18T07:51:38;99905.41;;;37.00;31.41
77299;BME280;66361;52.034;20.656;2023-09-18T07:55:43;99908.75;;;37.02;32.47
77299;BME280;66361;52.034;20.656;2023-09-18T07:59:46;99900.78;;;37.16;32.56
77299;BME280;66361;52.034;20.656;2023-09-18T08:03:49;99894.72;;;37.09;29.95
77299;BME280;66361;52.034;20.656;2023-09-18T08:07:52;99888.41;;;36.11;31.31
77299;BME280;66361;52.034;20.656;2023-09-18T08:11:58;99900.47;;;36.92;30.02
77299;BME280;66361;52.034;20.656;2023-09-18T08:16:02;99887.81;;;36.76;32.81
77299;BME280;66361;52.034;20.656;2023-09-18T08:20:06;99885.84;;;37.67;29.03
77299;BME280;66361;52.034;20.656;2023-09-18T08:24:14;99883.66;;;37.49;29.93
77299;BME280;66361;52.034;20.656;2023-09-18T08:28:19;99886.41;;;37.49;31.35
77299;BME280;66361;52.034;20.656;2023-09-18T08:32:22;99879.13;;;38.04;28.23
77299;BME280;66361;52.034;20.656;2023-09-18T08:36:25;99880.94;;;37.19;29.35
77299;BME280;66361;52.034;20.656;2023-09-18T08:40:30;99872.63;;;37.54;28.86
77299;BME280;66361;52.034;20.656;2023-09-18T08:44:38;99863.28;;;36.54;31.26
77299;BME280;66361;52.034;20.656;2023-09-18T08:48:42;99859.69;;;36.38;29.95
77299;BME280;66361;52.034;20.656;2023-09-18T08:52:46;99860.22;;;36.35;30.45
77299;BME280;66361;52.034;20.656;2023-09-18T08:56:50;99858.22;;;37.83;28.49
77299;BME280;66361;52.034;20.656;2023-09-18T09:00:54;99862.78;;;36.98;29.19
77299;BME280;66361;52.034;20.656;2023-09-18T09:04:59;99857.81;;;36.74;28.02
77299;BME280;66361;52.034;20.656;2023-09-18T09:09:03;99853.41;;;36.88;29.09
77299;BME280;66361;52.034;20.656;2023-09-18T09:13:06;99856.38;;;36.31;31.36
77299;BME280;66361;52.034;20.656;2023-09-18T09:17:18;99851.31;;;36.08;30.33
77299;BME280;66361;52.034;20.656;2023-09-18T09:21:21;99845.38;;;36.42;30.05
77299;BME280;66361;52.034;20.656;2023-09-18T09:25:26;99838.09;;;36.00;30.46
77299;BME280;66361;52.034;20.656;2023-09-18T09:29:30;99837.50;;;35.83;30.60
77299;BME280;66361;52.034;20.656;2023-09-18T09:33:34;99838.09;;;35.38;31.71
77299;BME280;66361;52.034;20.656;2023-09-18T09:37:37;99825.81;;;35.61;32.98
77299;BME280;66361;52.034;20.656;2023-09-18T09:41:45;99827.25;;;35.63;31.85
77299;BME280;66361;52.034;20.656;2023-09-18T09:45:49;99822.53;;;36.26;30.50
77299;BME280;66361;52.034;20.656;2023-09-18T09:50:06;99818.91;;;36.05;29.86
77299;BME280;66361;52.034;20.656;2023-09-18T09:54:09;99817.25;;;36.04;30.06
77299;BME280;66361;52.034;20.656;2023-09-18T09:58:14;99811.16;;;35.92;29.85
77299;BME280;66361;52.034;20.656;2023-09-18T10:02:17;99802.25;;;35.65;31.06
77299;BME280;66361;52.034;20.656;2023-09-18T10:06:26;99797.03;;;34.79;33.13
77299;BME280;66361;52.034;20.656;2023-09-18T10:10:32;99787.44;;;35.14;32.47
77299;BME280;66361;52.034;20.656;2023-09-18T10:14:36;99782.22;;;34.80;32.89
77299;BME280;66361;52.034;20.656;2023-09-18T10:19:10;99784.72;;;33.36;35.57
77299;BME280;66361;52.034;20.656;2023-09-18T10:23:23;99775.94;;;32.96;35.54
77299;BME280;66361;52.034;20.656;2023-09-18T10:27:30;99779.34;;;31.68;38.29
77299;BME280;66361;52.034;20.656;2023-09-18T10:31:36;99774.91;;;32.19;37.96
77299;BME280;66361;52.034;20.656;2023-09-18T10:35:42;99771.47;;;31.43;38.23
77299;BME280;66361;52.034;20.656;2023-09-18T10:39:49;99776.31;;;30.71;40.26
77299;BME280;66361;52.034;20.656;2023-09-18T10:43:53;99766.72;;;30.57;40.93
77299;BME280;66361;52.034;20.656;2023-09-18T10:47:58;99759.56;;;29.55;41.59
77299;BME280;66361;52.034;20.656;2023-09-18T10:52:02;99743.41;;;30.20;41.35
77299;BME280;66361;52.034;20.656;2023-09-18T10:56:06;99750.19;;;30.29;42.46
77299;BME280;66361;52.034;20.656;2023-09-18T11:00:11;99743.75;;;30.88;41.35
77299;BME280;66361;52.034;20.656;2023-09-18T11:04:19;99736.97;;;30.56;41.57
77299;BME280;66361;52.034;20.656;2023-09-18T11:08:28;99732.69;;;30.48;38.92
77299;BME280;66361;52.034;20.656;2023-09-18T11:12:44;99729.41;;;30.05;40.44
77299;BME280;66361;52.034;20.656;2023-09-18T11:16:49;99726.47;;;29.58;42.03
77299;BME280;66361;52.034;20.656;2023-09-18T11:21:07;99719.91;;;28.93;44.01
77299;BME280;66361;52.034;20.656;2023-09-18T11:25:37;99708.25;;;28.86;44.80
77299;BME280;66361;52.034;20.656;2023-09-18T11:29:41;99711.63;;;29.24;42.24
77299;BME280;66361;52.034;20.656;2023-09-18T11:33:52;99710.03;;;29.65;43.01
77299;BME280;66361;52.034;20.656;2023-09-18T11:38:06;99705.38;;;29.72;41.87
77299;BME280;66361;52.034;20.656;2023-09-18T11:42:12;99701.19;;;29.40;42.85
77299;BME280;66361;52.034;20.656;2023-09-18T11:46:19;99707.06;;;29.00;42.90
77299;BME280;66361;52.034;20.656;2023-09-18T11:50:23;99699.66;;;29.07;43.33
77299;BME280;66361;52.034;20.656;2023-09-18T11:54:27;99696.88;;;28.96;43.92
77299;BME280;66361;52.034;20.656;2023-09-18T11:58:44;99684.13;;;28.78;43.93
77299;BME280;66361;52.034;20.656;2023-09-18T12:02:49;99685.72;;;28.85;42.38
77299;BME280;66361;52.034;20.656;2023-09-18T12:06:54;99683.38;;;28.46;44.59
77299;BME280;66361;52.034;20.656;2023-09-18T12:10:57;99696.97;;;28.15;44.92
77299;BME280;66361;52.034;20.656;2023-09-18T12:15:01;99684.47;;;28.14;44.73
77299;BME280;66361;52.034;20.656;2023-09-18T12:19:06;99678.94;;;28.52;44.67
77299;BME280;66361;52.034;20.656;2023-09-18T12:23:09;99673.94;;;28.92;46.82
77299;BME280;66361;52.034;20.656;2023-09-18T12:27:14;99665.78;;;28.73;44.09
77299;BME280;66361;52.034;20.656;2023-09-18T12:31:17;99666.81;;;28.91;43.36
77299;BME280;66361;52.034;20.656;2023-09-18T12:35:23;99653.50;;;28.46;44.89
77299;BME280;66361;52.034;20.656;2023-09-18T12:39:32;99647.50;;;28.62;45.16
77299;BME280;66361;52.034;20.656;2023-09-18T12:43:37;99643.59;;;28.76;45.79
77299;BME280;66361;52.034;20.656;2023-09-18T12:47:42;99636.41;;;28.82;41.62
77299;BME280;66361;52.034;20.656;2023-09-18T12:51:55;99640.19;;;28.99;40.09
77299;BME280;66361;52.034;20.656;2023-09-18T12:56:06;99641.41;;;28.85;42.52
77299;BME280;66361;52.034;20.656;2023-09-18T13:00:10;99639.81;;;28.96;42.59
77299;BME280;66361;52.034;20.656;2023-09-18T13:04:14;99639.94;;;28.46;41.28
77299;BME280;66361;52.034;20.656;2023-09-18T13:08:22;99628.13;;;27.78;41.62
77299;BME280;66361;52.034;20.656;2023-09-18T13:12:39;99613.59;;;27.72;41.19
77299;BME280;66361;52.034;20.656;2023-09-18T13:16:42;99597.81;;;27.94;40.56
77299;BME280;66361;52.034;20.656;2023-09-18T13:20:48;99591.72;;;27.99;41.87
77299;BME280;66361;52.034;20.656;2023-09-18T13:24:56;99589.31;;;28.09;40.78
77299;BME280;66361;52.034;20.656;2023-09-18T13:28:59;99575.66;;;28.22;39.94
77299;BME280;66361;52.034;20.656;2023-09-18T13:33:04;99571.00;;;28.04;40.83
77299;BME280;66361;52.034;20.656;2023-09-18T13:37:08;99565.50;;;28.11;42.24
77299;BME280;66361;52.034;20.656;2023-09-18T13:41:12;99563.84;;;28.10;40.58
77299;BME280;66361;52.034;20.656;2023-09-18T13:45:15;99557.31;;;28.17;38.40
77299;BME280;66361;52.034;20.656;2023-09-18T13:49:19;99560.72;;;28.31;37.26
77299;BME280;66361;52.034;20.656;2023-09-18T13:53:23;99553.16;;;28.15;38.60
77299;BME280;66361;52.034;20.656;2023-09-18T13:57:35;99557.81;;;28.08;39.92
77299;BME280;66361;52.034;20.656;2023-09-18T14:01:38;99547.41;;;27.80;40.78
77299;BME280;66361;52.034;20.656;2023-09-18T14:05:41;99538.72;;;27.71;41.45
77299;BME280;66361;52.034;20.656;2023-09-18T14:09:44;99540.34;;;27.48;42.52
77299;BME280;66361;52.034;20.656;2023-09-18T14:13:49;99541.63;;;27.45;42.36
77299;BME280;66361;52.034;20.656;2023-09-18T14:17:53;99528.66;;;27.47;42.81
77299;BME280;66361;52.034;20.656;2023-09-18T14:21:56;99533.44;;;27.52;42.75
77299;BME280;66361;52.034;20.656;2023-09-18T14:26:02;99535.28;;;27.58;42.35
77299;BME280;66361;52.034;20.656;2023-09-18T14:30:09;99519.03;;;27.58;42.33
77299;BME280;66361;52.034;20.656;2023-09-18T14:34:12;99517.75;;;27.60;42.59
77299;BME280;66361;52.034;20.656;2023-09-18T14:38:15;99512.59;;;27.52;42.63
77299;BME280;66361;52.034;20.656;2023-09-18T14:42:19;99512.50;;;27.65;42.29
77299;BME280;66361;52.034;20.656;2023-09-18T14:46:23;99513.75;;;27.38;43.45
77299;BME280;66361;52.034;20.656;2023-09-18T14:50:26;99517.66;;;27.11;44.35
77299;BME280;66361;52.034;20.656;2023-09-18T14:54:29;99512.13;;;26.92;44.62
77299;BME280;66361;52.034;20.656;2023-09-18T14:58:51;99505.41;;;26.57;46.59
77299;BME280;66361;52.034;20.656;2023-09-18T15:02:56;99514.03;;;26.34;47.30
77299;BME280;66361;52.034;20.656;2023-09-18T15:07:01;99506.56;;;26.30;47.47
77299;BME280;66361;52.034;20.656;2023-09-18T15:11:04;99504.34;;;26.00;48.27
77299;BME280;66361;52.034;20.656;2023-09-18T15:15:08;99494.97;;;25.77;49.57
77299;BME280;66361;52.034;20.656;2023-09-18T15:19:13;99491.66;;;25.55;50.82
77299;BME280;66361;52.034;20.656;2023-09-18T15:23:21;99480.66;;;25.37;54.30
77299;BME280;66361;52.034;20.656;2023-09-18T15:27:25;99475.88;;;25.39;52.45
77299;BME280;66361;52.034;20.656;2023-09-18T15:31:27;99475.44;;;25.22;52.41
77299;BME280;66361;52.034;20.656;2023-09-18T15:35:31;99471.84;;;25.02;54.46
77299;BME280;66361;52.034;20.656;2023-09-18T15:39:35;99473.31;;;24.91;55.13
77299;BME280;66361;52.034;20.656;2023-09-18T15:43:38;99470.91;;;24.62;56.54
77299;BME280;66361;52.034;20.656;2023-09-18T15:47:41;99474.41;;;24.49;57.53
77299;BME280;66361;52.034;20.656;2023-09-18T15:51:46;99463.69;;;24.69;55.53
77299;BME280;66361;52.034;20.656;2023-09-18T15:55:49;99479.16;;;24.47;57.15
77299;BME280;66361;52.034;20.656;2023-09-18T15:59:52;99478.41;;;24.19;59.13
77299;BME280;66361;52.034;20.656;2023-09-18T16:03:56;99468.19;;;24.15;59.56
77299;BME280;66361;52.034;20.656;2023-09-18T16:08:01;99459.41;;;23.99;60.11
77299;BME280;66361;52.034;20.656;2023-09-18T16:12:06;99457.81;;;24.11;59.54
77299;BME280;66361;52.034;20.656;2023-09-18T16:16:11;99457.38;;;24.08;59.88
77299;BME280;66361;52.034;20.656;2023-09-18T16:20:14;99453.44;;;24.04;60.25
77299;BME280;66361;52.034;20.656;2023-09-18T16:24:18;99448.41;;;23.94;61.56
77299;BME280;66361;52.034;20.656;2023-09-18T16:28:22;99449.34;;;23.80;62.42
77299;BME280;66361;52.034;20.656;2023-09-18T16:32:28;99438.59;;;23.59;62.96
77299;BME280;66361;52.034;20.656;2023-09-18T16:36:32;99441.09;;;23.33;63.59
77299;BME280;66361;52.034;20.656;2023-09-18T16:40:37;99434.22;;;23.02;65.45
77299;BME280;66361;52.034;20.656;2023-09-18T16:44:40;99426.66;;;22.91;66.32
77299;BME280;66361;52.034;20.656;2023-09-18T16:48:44;99422.31;;;22.76;66.57
77299;BME280;66361;52.034;20.656;2023-09-18T16:52:47;99420.66;;;22.53;68.13
77299;BME280;66361;52.034;20.656;2023-09-18T16:56:51;99431.94;;;22.28;69.14
77299;BME280;66361;52.034;20.656;2023-09-18T17:00:56;99430.00;;;22.07;70.31
77299;BME280;66361;52.034;20.656;2023-09-18T17:04:59;99423.59;;;21.79;71.78
77299;BME280;66361;52.034;20.656;2023-09-18T17:09:03;99420.09;;;21.63;72.69
77299;BME280;66361;52.034;20.656;2023-09-18T17:13:10;99419.44;;;21.47;73.24
77299;BME280;66361;52.034;20.656;2023-09-18T17:17:14;99412.78;;;21.43;73.86
77299;BME280;66361;52.034;20.656;2023-09-18T17:21:17;99421.53;;;21.37;74.43
77299;BME280;66361;52.034;20.656;2023-09-18T17:25:21;99424.34;;;21.20;74.86
77299;BME280;66361;52.034;20.656;2023-09-18T17:29:25;99422.81;;;21.03;75.34
77299;BME280;66361;52.034;20.656;2023-09-18T17:33:28;99408.63;;;20.95;76.07
77299;BME280;66361;52.034;20.656;2023-09-18T17:37:32;99411.25;;;20.80;77.86
77299;BME280;66361;52.034;20.656;2023-09-18T17:41:35;99412.25;;;20.64;77.96
77299;BME280;66361;52.034;20.656;2023-09-18T17:45:40;99408.66;;;20.49;79.84
77299;BME280;66361;52.034;20.656;2023-09-18T17:49:43;99413.06;;;20.34;80.66
77299;BME280;66361;52.034;20.656;2023-09-18T17:53:47;99415.28;;;20.30;80.37
77299;BME280;66361;52.034;20.656;2023-09-18T17:57:50;99416.81;;;20.17;80.99
77299;BME280;66361;52.034;20.656;2023-09-18T18:02:01;99420.81;;;20.21;80.92
77299;BME280;66361;52.034;20.656;2023-09-18T18:06:07;99410.34;;;20.42;80.36
77299;BME280;66361;52.034;20.656;2023-09-18T18:10:11;99406.84;;;20.42;80.16
77299;BME280;66361;52.034;20.656;2023-09-18T18:14:14;99411.38;;;20.33;80.71
77299;BME280;66361;52.034;20.656;2023-09-18T18:18:21;99410.47;;;20.18;81.29
77299;BME280;66361;52.034;20.656;2023-09-18T18:22:24;99402.03;;;20.29;81.06
77299;BME280;66361;52.034;20.656;2023-09-18T18:26:28;99392.50;;;20.26;81.48
77299;BME280;66361;52.034;20.656;2023-09-18T18:30:31;99394.09;;;20.44;80.77
77299;BME280;66361;52.034;20.656;2023-09-18T18:34:35;99393.09;;;20.45;80.22
77299;BME280;66361;52.034;20.656;2023-09-18T18:38:38;99394.16;;;20.58;80.07
77299;BME280;66361;52.034;20.656;2023-09-18T18:42:42;99399.16;;;20.61;79.74
77299;BME280;66361;52.034;20.656;2023-09-18T18:46:45;99393.63;;;20.63;80.26
77299;BME280;66361;52.034;20.656;2023-09-18T18:50:49;99393.31;;;20.58;80.66
77299;BME280;66361;52.034;20.656;2023-09-18T18:54:53;99395.91;;;20.51;81.26
77299;BME280;66361;52.034;20.656;2023-09-18T18:58:56;99392.59;;;20.41;81.38
77299;BME280;66361;52.034;20.656;2023-09-18T19:02:59;99399.78;;;20.41;82.27
77299;BME280;66361;52.034;20.656;2023-09-18T19:07:07;99395.47;;;20.31;82.29
77299;BME280;66361;52.034;20.656;2023-09-18T19:11:14;99391.22;;;20.14;83.49
77299;BME280;66361;52.034;20.656;2023-09-18T19:15:18;99391.28;;;20.06;84.87
77299;BME280;66361;52.034;20.656;2023-09-18T19:19:25;99382.75;;;20.03;84.60
77299;BME280;66361;52.034;20.656;2023-09-18T19:23:29;99377.56;;;20.01;85.41
77299;BME280;66361;52.034;20.656;2023-09-18T19:27:32;99371.00;;;20.12;84.95
77299;BME280;66361;52.034;20.656;2023-09-18T19:31:38;99358.38;;;20.20;85.40
77299;BME280;66361;52.034;20.656;2023-09-18T19:35:41;99357.72;;;20.18;85.05
77299;BME280;66361;52.034;20.656;2023-09-18T19:39:46;99360.53;;;20.25;85.03
77299;BME280;66361;52.034;20.656;2023-09-18T19:43:49;99355.47;;;20.30;84.41
77299;BME280;66361;52.034;20.656;2023-09-18T19:47:52;99356.31;;;20.30;84.55
77299;BME280;66361;52.034;20.656;2023-09-18T19:51:57;99348.47;;;20.21;85.08
77299;BME280;66361;52.034;20.656;2023-09-18T19:56:01;99352.84;;;20.22;85.25
77299;BME280;66361;52.034;20.656;2023-09-18T20:00:06;99350.38;;;20.12;85.83
77299;BME280;66361;52.034;20.656;2023-09-18T20:04:12;99352.47;;;19.94;86.75
77299;BME280;66361;52.034;20.656;2023-09-18T20:08:15;99334.88;;;20.00;86.49
77299;BME280;66361;52.034;20.656;2023-09-18T20:12:20;99333.88;;;20.01;86.68
77299;BME280;66361;52.034;20.656;2023-09-18T20:16:23;99336.69;;;20.07;85.83
77299;BME280;66361;52.034;20.656;2023-09-18T20:20:27;99334.69;;;20.01;86.14
77299;BME280;66361;52.034;20.656;2023-09-18T20:24:30;99326.19;;;19.98;86.79
77299;BME280;66361;52.034;20.656;2023-09-18T20:28:35;99332.22;;;20.00;86.58
77299;BME280;66361;52.034;20.656;2023-09-18T20:32:38;99327.03;;;19.98;86.65
77299;BME280;66361;52.034;20.656;2023-09-18T20:36:42;99328.28;;;20.10;86.62
77299;BME280;66361;52.034;20.656;2023-09-18T20:40:44;99330.66;;;20.05;86.29
77299;BME280;66361;52.034;20.656;2023-09-18T20:44:49;99328.66;;;20.07;86.66
77299;BME280;66361;52.034;20.656;2023-09-18T20:48:52;99324.25;;;20.14;85.89
77299;BME280;66361;52.034;20.656;2023-09-18T20:53:04;99314.50;;;19.91;86.54
77299;BME280;66361;52.034;20.656;2023-09-18T20:57:09;99310.81;;;19.92;87.02
77299;BME280;66361;52.034;20.656;2023-09-18T21:01:14;99313.72;;;19.82;87.36
77299;BME280;66361;52.034;20.656;2023-09-18T21:05:18;99302.28;;;19.96;86.71
77299;BME280;66361;52.034;20.656;2023-09-18T21:09:22;99306.81;;;19.88;87.38
77299;BME280;66361;52.034;20.656;2023-09-18T21:13:28;99301.47;;;19.88;87.30